createdAt,value
2022-12-03T00:01:35.031Z,102279.66
2022-12-03T00:06:36.459Z,102273.94
2022-12-03T00:11:37.873Z,102268.06
2022-12-03T00:16:39.292Z,102268.06
2022-12-03T00:21:40.771Z,102261.41
2022-12-03T00:26:42.258Z,102259.44
2022-12-03T00:31:45.482Z,102259.53
2022-12-03T00:36:47.082Z,102256.00
2022-12-03T00:41:48.441Z,102249.25
2022-12-03T00:46:49.889Z,102247.69
2022-12-03T00:51:51.377Z,102238.16
2022-12-03T00:56:52.776Z,102247.44
2022-12-03T01:01:54.237Z,102250.22
2022-12-03T01:06:56.044Z,102243.38
2022-12-03T01:11:57.520Z,102239.16
2022-12-03T01:16:59.104Z,102240.81
2022-12-03T01:22:00.959Z,102242.59
2022-12-03T01:27:02.612Z,102235.94
2022-12-03T01:32:22.059Z,102234.06
2022-12-03T01:37:25.667Z,102231.63
2022-12-03T01:42:31.499Z,102229.97
2022-12-03T01:47:37.385Z,102227.31
2022-12-03T01:52:39.751Z,102220.53
2022-12-03T01:57:50.277Z,102213.91
2022-12-03T02:02:55.325Z,102219.00
2022-12-03T02:07:57.894Z,102220.00
2022-12-03T02:13:02.854Z,102218.88
2022-12-03T02:18:04.543Z,102225.00
2022-12-03T02:23:22.058Z,102221.69
2022-12-03T02:28:23.584Z,102219.91
2022-12-03T02:33:25.049Z,102215.81
2022-12-03T02:38:29.184Z,102214.03
2022-12-03T02:43:31.067Z,102209.81
2022-12-03T02:48:36.073Z,102211.59
2022-12-03T02:53:44.387Z,102206.59
2022-12-03T02:58:48.540Z,102204.06
2022-12-03T03:03:51.828Z,102199.63
2022-12-03T03:08:53.358Z,102200.09
2022-12-03T03:13:55.537Z,102199.84
2022-12-03T03:18:56.971Z,102193.34
2022-12-03T03:23:58.354Z,102200.97
2022-12-03T03:29:00.548Z,102186.47
2022-12-03T03:34:02.031Z,102189.13
2022-12-03T03:39:05.410Z,102191.03
2022-12-03T03:44:08.384Z,102186.56
2022-12-03T03:49:10.562Z,102182.16
2022-12-03T03:54:12.541Z,102172.84
2022-12-03T03:59:14.188Z,102174.59
2022-12-03T04:04:24.418Z,102164.41
2022-12-03T04:09:25.940Z,102167.75
2022-12-03T04:14:27.406Z,102159.97
2022-12-03T04:19:28.825Z,102164.84
2022-12-03T04:24:30.182Z,102167.81
2022-12-03T04:29:31.645Z,102160.41
2022-12-03T04:34:52.215Z,102166.16
2022-12-03T04:39:54.084Z,102150.78
2022-12-03T04:44:55.852Z,102157.41
2022-12-03T04:49:57.502Z,102162.16
2022-12-03T04:54:58.889Z,102163.81
2022-12-03T05:00:00.272Z,102163.59
2022-12-03T05:05:01.863Z,102167.69
2022-12-03T05:10:04.732Z,102171.22
2022-12-03T05:15:07.152Z,102163.91
2022-12-03T05:20:28.393Z,102160.47
2022-12-03T05:25:29.916Z,102168.88
2022-12-03T05:30:31.515Z,102163.78
2022-12-03T05:35:33.188Z,102161.22
2022-12-03T05:40:34.586Z,102151.72
2022-12-03T05:45:38.545Z,102142.19
2022-12-03T05:50:43.847Z,102155.91
2022-12-03T05:55:45.407Z,102146.16
2022-12-03T06:00:47.005Z,102145.47
2022-12-03T06:05:48.435Z,102148.69
2022-12-03T06:10:49.936Z,102132.53
2022-12-03T06:15:51.460Z,102131.88
2022-12-03T06:20:52.989Z,102134.41
2022-12-03T06:26:09.442Z,102130.09
2022-12-03T06:31:10.929Z,102124.22
2022-12-03T06:36:12.458Z,102126.56
2022-12-03T06:41:13.883Z,102115.50
2022-12-03T06:46:15.354Z,102115.81
2022-12-03T06:51:16.881Z,102119.81
2022-12-03T06:56:22.071Z,102123.78
2022-12-03T07:01:24.216Z,102124.66
2022-12-03T07:06:25.694Z,102129.63
2022-12-03T07:11:33.035Z,102122.25
2022-12-03T07:16:35.927Z,102119.03
2022-12-03T07:21:38.010Z,102127.66
2022-12-03T07:26:39.664Z,102133.00
2022-12-03T07:31:41.306Z,102130.09
2022-12-03T07:36:42.883Z,102128.09
2022-12-03T07:41:44.321Z,102129.09
2022-12-03T07:46:45.765Z,102128.88
2022-12-03T07:51:53.861Z,102142.63
2022-12-03T07:56:59.731Z,102139.72
2022-12-03T08:02:02.832Z,102142.63
2022-12-03T08:07:04.360Z,102138.28
2022-12-03T08:12:15.280Z,102142.63
2022-12-03T08:17:18.511Z,102131.50
2022-12-03T08:22:21.001Z,102131.75
2022-12-03T08:27:22.413Z,102130.41
2022-12-03T08:32:24.255Z,102142.25
2022-12-03T08:37:25.735Z,102133.59
2022-12-03T08:42:43.768Z,102133.97
2022-12-03T08:47:45.378Z,102131.47
2022-12-03T08:52:46.793Z,102129.06
2022-12-03T08:57:48.299Z,102128.41
2022-12-03T09:02:52.294Z,102126.75
2022-12-03T09:07:53.885Z,102120.78
2022-12-03T09:12:55.570Z,102124.19
2022-12-03T09:17:57.121Z,102123.66
2022-12-03T09:23:03.940Z,102124.19
2022-12-03T09:28:05.794Z,102127.28
2022-12-03T09:33:07.334Z,102118.53
2022-12-03T09:38:08.757Z,102116.78
2022-12-03T09:43:11.356Z,102119.06
2022-12-03T09:48:16.363Z,102123.53
2022-12-03T09:53:20.868Z,102116.88
2022-12-03T09:58:23.404Z,102107.91
2022-12-03T10:03:30.118Z,102112.63
2022-12-03T10:08:35.405Z,102113.50
2022-12-03T10:13:37.502Z,102113.81
2022-12-03T10:18:43.725Z,102098.91
2022-12-03T10:23:49.615Z,102108.53
2022-12-03T10:28:56.891Z,102098.91
2022-12-03T10:33:58.696Z,102098.44
2022-12-03T10:39:10.508Z,102088.84
2022-12-03T10:44:30.664Z,102082.97
2022-12-03T10:49:44.793Z,102072.56
2022-12-03T10:54:51.061Z,102071.03
2022-12-03T10:59:52.845Z,102067.28
2022-12-03T11:04:58.066Z,102057.59
2022-12-03T11:10:01.041Z,102051.50
2022-12-03T11:15:07.967Z,102048.19
2022-12-03T11:20:35.895Z,102037.66
2022-12-03T11:25:50.783Z,102028.06
2022-12-03T11:30:53.695Z,102029.22
2022-12-03T11:36:07.370Z,102031.34
2022-12-03T11:41:19.807Z,102022.28
2022-12-03T11:46:25.753Z,102015.75
2022-12-03T11:51:30.184Z,102012.78
2022-12-03T11:56:31.707Z,102007.34
2022-12-03T12:01:39.949Z,102001.66
2022-12-03T12:06:43.969Z,101998.47
2022-12-03T12:11:45.654Z,101995.25
2022-12-03T12:16:55.322Z,101988.09
2022-12-03T12:22:25.045Z,101978.75
2022-12-03T12:27:39.167Z,101969.72
2022-12-03T12:32:49.219Z,101973.38
2022-12-03T12:37:59.103Z,101954.22
2022-12-03T12:43:23.841Z,101946.03
2022-12-03T12:48:33.690Z,101949.91
2022-12-03T12:53:36.397Z,101946.50
2022-12-03T12:58:37.789Z,101954.22
2022-12-03T13:03:39.991Z,101945.50
2022-12-03T13:08:45.108Z,101936.66
2022-12-03T13:13:46.606Z,101941.84
2022-12-03T13:19:01.211Z,101933.84
2022-12-03T13:24:10.543Z,101936.28
2022-12-03T13:29:15.914Z,101939.06
2022-12-03T13:34:44.442Z,101927.00
2022-12-03T13:39:48.955Z,101918.03
2022-12-03T13:44:50.399Z,101918.72
2022-12-03T13:50:03.496Z,101915.50
2022-12-03T13:55:07.112Z,101905.53
2022-12-03T14:00:09.038Z,101906.78
2022-12-03T14:05:10.783Z,101897.66
2022-12-03T14:10:13.144Z,101886.09
2022-12-03T14:15:14.542Z,101886.75
2022-12-03T14:20:16.167Z,101888.41
2022-12-03T14:25:17.753Z,101894.81
2022-12-03T14:30:19.295Z,101890.50
2022-12-03T14:35:20.734Z,101887.94
2022-12-03T14:40:22.580Z,101891.03
2022-12-03T14:45:25.165Z,101893.56
2022-12-03T14:50:26.692Z,101891.34
2022-12-03T14:55:28.148Z,101893.25
2022-12-03T15:00:30.800Z,101891.16
2022-12-03T15:05:32.272Z,101887.16
2022-12-03T15:10:33.678Z,101885.81
2022-12-03T15:15:35.121Z,101886.94
2022-12-03T15:20:37.627Z,101879.50
2022-12-03T15:25:39.222Z,101892.47
2022-12-03T15:30:40.708Z,101890.13
2022-12-03T15:35:42.805Z,101886.69
2022-12-03T15:40:45.665Z,101890.91
2022-12-03T15:45:47.249Z,101894.84
2022-12-03T15:50:48.697Z,101902.38
2022-12-03T15:55:50.283Z,101903.94
2022-12-03T16:00:51.743Z,101900.38
2022-12-03T16:05:53.165Z,101897.63
2022-12-03T16:10:54.655Z,101902.81
2022-12-03T16:15:56.125Z,101898.50
2022-12-03T16:20:57.658Z,101895.53
2022-12-03T16:25:59.050Z,101893.88
2022-12-03T16:31:00.522Z,101888.56
2022-12-03T16:36:01.996Z,101890.00
2022-12-03T16:41:03.923Z,101897.72
2022-12-03T16:46:15.406Z,101886.78
2022-12-03T16:51:19.317Z,101883.00
2022-12-03T16:56:21.053Z,101878.25
2022-12-03T17:01:23.472Z,101877.03
2022-12-03T17:06:25.121Z,101885.44
2022-12-03T17:11:26.678Z,101876.81
2022-12-03T17:16:30.701Z,101875.78
2022-12-03T17:21:35.044Z,101872.25
2022-12-03T17:26:36.821Z,101882.44
2022-12-03T17:31:42.511Z,101874.69
2022-12-03T17:36:44.454Z,101877.00
2022-12-03T17:41:46.064Z,101867.50
2022-12-03T17:46:47.641Z,101864.97
2022-12-03T17:51:49.357Z,101864.41
2022-12-03T17:56:50.923Z,101864.59
2022-12-03T18:01:52.476Z,101854.97
2022-12-03T18:06:57.469Z,101857.06
2022-12-03T18:12:02.142Z,101860.47
2022-12-03T18:17:03.645Z,101856.28
2022-12-03T18:22:05.431Z,101845.38
2022-12-03T18:27:06.933Z,101848.34
2022-12-03T18:32:27.098Z,101844.34
2022-12-03T18:37:30.045Z,101846.69
2022-12-03T18:42:31.521Z,101851.19
2022-12-03T18:47:32.967Z,101850.63
2022-12-03T18:52:34.657Z,101848.53
2022-12-03T18:57:36.073Z,101843.34
2022-12-03T19:07:59.759Z,101844.25
2022-12-03T19:13:01.354Z,101842.91
2022-12-03T19:18:03.301Z,101841.25
2022-12-03T19:23:04.702Z,101840.25
2022-12-03T19:28:06.569Z,101839.56
2022-12-03T19:33:22.622Z,101837.56
2022-12-03T19:38:40.320Z,101844.56
2022-12-03T19:43:43.016Z,101842.00
2022-12-03T19:48:47.800Z,101840.88
2022-12-03T19:53:49.461Z,101829.94
2022-12-03T19:58:56.024Z,101820.81
2022-12-03T20:04:00.822Z,101822.22
2022-12-03T20:09:11.617Z,101816.25
2022-12-03T20:14:16.779Z,101826.78
2022-12-03T20:19:27.009Z,101823.78
2022-12-03T20:24:30.234Z,101819.94
2022-12-03T20:29:32.203Z,101827.06
2022-12-03T20:34:36.073Z,101811.06
2022-12-03T20:39:37.580Z,101810.19
2022-12-03T20:44:40.556Z,101810.28
2022-12-03T20:49:42.053Z,101807.94
2022-12-03T20:54:43.832Z,101808.28
2022-12-03T20:59:47.142Z,101800.44
2022-12-03T21:04:48.620Z,101789.09
2022-12-03T21:09:51.191Z,101803.72
2022-12-03T21:14:54.527Z,101791.81
2022-12-03T21:19:56.723Z,101786.63
2022-12-03T21:24:58.559Z,101783.84
2022-12-03T21:30:01.959Z,101789.06
2022-12-03T21:35:03.688Z,101793.47
2022-12-03T21:40:05.933Z,101794.34
2022-12-03T21:45:08.368Z,101793.88
2022-12-03T21:50:11.507Z,101786.84
2022-12-03T21:55:12.936Z,101783.09
2022-12-03T22:00:15.101Z,101789.69
2022-12-03T22:05:17.829Z,101797.78
2022-12-03T22:10:19.714Z,101783.97
2022-12-03T22:15:21.108Z,101781.75
2022-12-03T22:20:22.725Z,101775.78
2022-12-03T22:25:24.169Z,101771.75
2022-12-03T22:30:25.600Z,101786.19
2022-12-03T22:35:27.075Z,101766.50
2022-12-03T22:40:28.527Z,101764.34
2022-12-03T22:45:29.910Z,101758.25
2022-12-03T22:50:31.350Z,101766.00
2022-12-03T22:55:32.942Z,101766.75
2022-12-03T23:00:41.164Z,101757.72
2022-12-03T23:05:42.554Z,101755.19
2022-12-03T23:10:47.152Z,101755.19
2022-12-03T23:15:50.835Z,101760.03
2022-12-03T23:20:54.061Z,101750.75
2022-12-03T23:26:00.841Z,101749.09
2022-12-03T23:31:03.558Z,101758.38
2022-12-03T23:36:06.267Z,101757.38
2022-12-03T23:41:11.120Z,101755.06
2022-12-03T23:46:26.592Z,101753.41
2022-12-03T23:51:28.055Z,101747.56
2022-12-03T23:56:30.881Z,101752.66
